sensor_id;sensor_type;location;lat;lon;timestamp;P1;durP1;ratioP1;P2;durP2;ratioP2
20306;SDS011;10312;52.434;13.206;2022-12-05T00:04:04;109.22;;;38.45;;
20306;SDS011;10312;52.434;13.206;2022-12-05T00:06:33;98.93;;;37.08;;
20306;SDS011;10312;52.434;13.206;2022-12-05T00:09:01;111.70;;;38.80;;
20306;SDS011;10312;52.434;13.206;2022-12-05T00:11:28;102.95;;;36.40;;
20306;SDS011;10312;52.434;13.206;2022-12-05T00:13:58;98.13;;;36.38;;
20306;SDS011;10312;52.434;13.206;2022-12-05T00:16:26;101.00;;;37.05;;
20306;SDS011;10312;52.434;13.206;2022-12-05T00:18:57;101.10;;;37.70;;
20306;SDS011;10312;52.434;13.206;2022-12-05T00:21:27;103.68;;;38.13;;
20306;SDS011;10312;52.434;13.206;2022-12-05T00:23:57;102.65;;;37.85;;
20306;SDS011;10312;52.434;13.206;2022-12-05T00:26:24;103.03;;;36.85;;
20306;SDS011;10312;52.434;13.206;2022-12-05T00:28:52;99.30;;;37.67;;
20306;SDS011;10312;52.434;13.206;2022-12-05T00:31:20;98.35;;;36.42;;
20306;SDS011;10312;52.434;13.206;2022-12-05T00:33:48;94.18;;;37.08;;
20306;SDS011;10312;52.434;13.206;2022-12-05T00:36:25;106.57;;;38.35;;
20306;SDS011;10312;52.434;13.206;2022-12-05T00:38:53;94.82;;;35.83;;
20306;SDS011;10312;52.434;13.206;2022-12-05T00:41:22;100.68;;;37.17;;
20306;SDS011;10312;52.434;13.206;2022-12-05T00:43:49;100.32;;;37.33;;
20306;SDS011;10312;52.434;13.206;2022-12-05T00:46:19;99.93;;;36.28;;
20306;SDS011;10312;52.434;13.206;2022-12-05T00:48:53;92.63;;;37.33;;
20306;SDS011;10312;52.434;13.206;2022-12-05T00:51:22;94.45;;;36.47;;
20306;SDS011;10312;52.434;13.206;2022-12-05T00:53:52;93.35;;;35.38;;
20306;SDS011;10312;52.434;13.206;2022-12-05T00:56:21;96.68;;;36.38;;
20306;SDS011;10312;52.434;13.206;2022-12-05T00:58:49;96.45;;;37.10;;
20306;SDS011;10312;52.434;13.206;2022-12-05T01:01:22;99.38;;;37.90;;
20306;SDS011;10312;52.434;13.206;2022-12-05T01:03:54;99.35;;;36.63;;
20306;SDS011;10312;52.434;13.206;2022-12-05T01:06:22;101.60;;;37.75;;
20306;SDS011;10312;52.434;13.206;2022-12-05T01:08:51;104.30;;;38.47;;
20306;SDS011;10312;52.434;13.206;2022-12-05T01:11:19;91.68;;;35.47;;
20306;SDS011;10312;52.434;13.206;2022-12-05T01:13:46;95.20;;;35.95;;
20306;SDS011;10312;52.434;13.206;2022-12-05T01:16:21;91.97;;;36.65;;
20306;SDS011;10312;52.434;13.206;2022-12-05T01:18:48;92.00;;;35.58;;
20306;SDS011;10312;52.434;13.206;2022-12-05T01:21:14;90.72;;;36.15;;
20306;SDS011;10312;52.434;13.206;2022-12-05T01:23:41;92.20;;;35.97;;
20306;SDS011;10312;52.434;13.206;2022-12-05T01:26:09;93.35;;;37.40;;
20306;SDS011;10312;52.434;13.206;2022-12-05T01:28:38;96.18;;;36.92;;
20306;SDS011;10312;52.434;13.206;2022-12-05T01:31:06;90.72;;;35.55;;
20306;SDS011;10312;52.434;13.206;2022-12-05T01:33:35;99.15;;;37.65;;
20306;SDS011;10312;52.434;13.206;2022-12-05T01:36:02;92.32;;;35.33;;
20306;SDS011;10312;52.434;13.206;2022-12-05T01:38:29;102.00;;;37.40;;
20306;SDS011;10312;52.434;13.206;2022-12-05T01:41:03;94.32;;;36.58;;
20306;SDS011;10312;52.434;13.206;2022-12-05T01:43:30;92.47;;;36.45;;
20306;SDS011;10312;52.434;13.206;2022-12-05T01:45:57;89.80;;;36.60;;
20306;SDS011;10312;52.434;13.206;2022-12-05T01:48:26;96.68;;;36.85;;
20306;SDS011;10312;52.434;13.206;2022-12-05T01:50:55;88.60;;;34.97;;
20306;SDS011;10312;52.434;13.206;2022-12-05T01:53:24;105.82;;;36.55;;
20306;SDS011;10312;52.434;13.206;2022-12-05T01:55:51;102.68;;;36.13;;
20306;SDS011;10312;52.434;13.206;2022-12-05T01:58:18;102.65;;;38.22;;
20306;SDS011;10312;52.434;13.206;2022-12-05T02:00:45;102.82;;;37.53;;
20306;SDS011;10312;52.434;13.206;2022-12-05T02:03:17;91.55;;;36.17;;
20306;SDS011;10312;52.434;13.206;2022-12-05T02:05:48;98.22;;;37.05;;
20306;SDS011;10312;52.434;13.206;2022-12-05T02:08:16;102.97;;;38.05;;
20306;SDS011;10312;52.434;13.206;2022-12-05T02:10:46;96.35;;;37.85;;
20306;SDS011;10312;52.434;13.206;2022-12-05T02:15:44;101.10;;;37.53;;
20306;SDS011;10312;52.434;13.206;2022-12-05T02:23:56;103.65;;;35.65;;
20306;SDS011;10312;52.434;13.206;2022-12-05T02:35:26;101.47;;;38.20;;
20306;SDS011;10312;52.434;13.206;2022-12-05T02:38:06;97.05;;;36.20;;
20306;SDS011;10312;52.434;13.206;2022-12-05T02:46:07;91.25;;;36.22;;
20306;SDS011;10312;52.434;13.206;2022-12-05T02:48:36;96.68;;;36.70;;
20306;SDS011;10312;52.434;13.206;2022-12-05T02:51:04;95.10;;;35.90;;
20306;SDS011;10312;52.434;13.206;2022-12-05T02:53:32;90.57;;;33.33;;
20306;SDS011;10312;52.434;13.206;2022-12-05T02:56:00;90.20;;;34.08;;
20306;SDS011;10312;52.434;13.206;2022-12-05T02:58:33;91.45;;;35.78;;
20306;SDS011;10312;52.434;13.206;2022-12-05T03:01:02;84.82;;;33.10;;
20306;SDS011;10312;52.434;13.206;2022-12-05T03:03:30;77.57;;;32.60;;
20306;SDS011;10312;52.434;13.206;2022-12-05T03:06:05;80.47;;;30.75;;
20306;SDS011;10312;52.434;13.206;2022-12-05T03:08:46;78.50;;;33.40;;
20306;SDS011;10312;52.434;13.206;2022-12-05T03:11:16;80.13;;;31.23;;
20306;SDS011;10312;52.434;13.206;2022-12-05T03:13:50;74.30;;;31.25;;
20306;SDS011;10312;52.434;13.206;2022-12-05T03:16:19;73.25;;;31.77;;
20306;SDS011;10312;52.434;13.206;2022-12-05T03:18:51;72.28;;;30.15;;
20306;SDS011;10312;52.434;13.206;2022-12-05T03:21:29;75.72;;;29.90;;
20306;SDS011;10312;52.434;13.206;2022-12-05T03:24:02;73.93;;;29.95;;
20306;SDS011;10312;52.434;13.206;2022-12-05T03:26:49;70.47;;;29.27;;
20306;SDS011;10312;52.434;13.206;2022-12-05T03:32:28;69.70;;;30.30;;
20306;SDS011;10312;52.434;13.206;2022-12-05T03:37:28;69.43;;;28.50;;
20306;SDS011;10312;52.434;13.206;2022-12-05T03:42:37;71.93;;;28.52;;
20306;SDS011;10312;52.434;13.206;2022-12-05T03:45:10;65.43;;;28.23;;
20306;SDS011;10312;52.434;13.206;2022-12-05T03:50:13;65.30;;;27.63;;
20306;SDS011;10312;52.434;13.206;2022-12-05T03:52:46;65.45;;;26.17;;
20306;SDS011;10312;52.434;13.206;2022-12-05T03:55:37;67.47;;;27.75;;
20306;SDS011;10312;52.434;13.206;2022-12-05T03:58:06;66.30;;;27.55;;
20306;SDS011;10312;52.434;13.206;2022-12-05T04:00:36;65.55;;;26.98;;
20306;SDS011;10312;52.434;13.206;2022-12-05T04:03:07;66.25;;;28.02;;
20306;SDS011;10312;52.434;13.206;2022-12-05T04:05:44;64.45;;;28.02;;
20306;SDS011;10312;52.434;13.206;2022-12-05T04:08:34;72.32;;;28.35;;
20306;SDS011;10312;52.434;13.206;2022-12-05T04:11:05;65.20;;;27.52;;
20306;SDS011;10312;52.434;13.206;2022-12-05T04:16:09;65.82;;;28.45;;
20306;SDS011;10312;52.434;13.206;2022-12-05T04:21:47;70.28;;;27.90;;
20306;SDS011;10312;52.434;13.206;2022-12-05T04:24:22;68.45;;;28.02;;
20306;SDS011;10312;52.434;13.206;2022-12-05T04:27:17;74.78;;;30.00;;
20306;SDS011;10312;52.434;13.206;2022-12-05T04:32:37;71.68;;;28.20;;
20306;SDS011;10312;52.434;13.206;2022-12-05T04:35:09;68.63;;;28.00;;
20306;SDS011;10312;52.434;13.206;2022-12-05T04:37:41;68.43;;;28.85;;
20306;SDS011;10312;52.434;13.206;2022-12-05T04:40:11;62.50;;;28.00;;
20306;SDS011;10312;52.434;13.206;2022-12-05T04:42:43;67.18;;;27.85;;
20306;SDS011;10312;52.434;13.206;2022-12-05T04:45:12;68.15;;;29.02;;
20306;SDS011;10312;52.434;13.206;2022-12-05T04:47:42;66.25;;;28.08;;
20306;SDS011;10312;52.434;13.206;2022-12-05T04:50:11;63.08;;;26.45;;
20306;SDS011;10312;52.434;13.206;2022-12-05T04:52:39;60.95;;;25.95;;
20306;SDS011;10312;52.434;13.206;2022-12-05T04:57:38;61.47;;;27.25;;
20306;SDS011;10312;52.434;13.206;2022-12-05T05:00:08;55.45;;;25.67;;
20306;SDS011;10312;52.434;13.206;2022-12-05T05:02:42;62.88;;;28.45;;
20306;SDS011;10312;52.434;13.206;2022-12-05T05:05:12;64.32;;;30.50;;
20306;SDS011;10312;52.434;13.206;2022-12-05T05:07:46;59.40;;;27.83;;
20306;SDS011;10312;52.434;13.206;2022-12-05T05:10:19;56.63;;;24.08;;
20306;SDS011;10312;52.434;13.206;2022-12-05T05:13:07;61.08;;;26.00;;
20306;SDS011;10312;52.434;13.206;2022-12-05T05:15:34;52.97;;;23.52;;
20306;SDS011;10312;52.434;13.206;2022-12-05T05:18:01;56.75;;;24.48;;
20306;SDS011;10312;52.434;13.206;2022-12-05T05:20:28;53.60;;;25.58;;
20306;SDS011;10312;52.434;13.206;2022-12-05T05:22:55;49.83;;;23.70;;
20306;SDS011;10312;52.434;13.206;2022-12-05T05:25:23;51.72;;;23.85;;
20306;SDS011;10312;52.434;13.206;2022-12-05T05:27:52;51.33;;;24.30;;
20306;SDS011;10312;52.434;13.206;2022-12-05T05:30:20;47.53;;;23.48;;
20306;SDS011;10312;52.434;13.206;2022-12-05T05:32:48;51.30;;;24.63;;
20306;SDS011;10312;52.434;13.206;2022-12-05T05:35:15;53.38;;;23.70;;
20306;SDS011;10312;52.434;13.206;2022-12-05T05:37:42;48.15;;;22.58;;
20306;SDS011;10312;52.434;13.206;2022-12-05T05:40:10;47.40;;;23.23;;
20306;SDS011;10312;52.434;13.206;2022-12-05T05:42:45;46.92;;;23.15;;
20306;SDS011;10312;52.434;13.206;2022-12-05T05:45:13;49.30;;;22.95;;
20306;SDS011;10312;52.434;13.206;2022-12-05T05:47:41;45.33;;;21.88;;
20306;SDS011;10312;52.434;13.206;2022-12-05T05:50:08;51.10;;;24.73;;
20306;SDS011;10312;52.434;13.206;2022-12-05T05:52:38;51.05;;;22.98;;
20306;SDS011;10312;52.434;13.206;2022-12-05T05:55:05;46.63;;;22.05;;
20306;SDS011;10312;52.434;13.206;2022-12-05T05:57:33;43.10;;;21.35;;
20306;SDS011;10312;52.434;13.206;2022-12-05T06:00:03;42.67;;;20.90;;
20306;SDS011;10312;52.434;13.206;2022-12-05T06:02:31;42.90;;;20.05;;
20306;SDS011;10312;52.434;13.206;2022-12-05T06:04:59;44.88;;;21.65;;
20306;SDS011;10312;52.434;13.206;2022-12-05T06:07:27;46.30;;;20.95;;
20306;SDS011;10312;52.434;13.206;2022-12-05T06:09:54;45.17;;;21.67;;
20306;SDS011;10312;52.434;13.206;2022-12-05T06:12:22;47.95;;;19.10;;
20306;SDS011;10312;52.434;13.206;2022-12-05T06:14:53;42.13;;;20.33;;
20306;SDS011;10312;52.434;13.206;2022-12-05T06:17:20;44.38;;;20.10;;
20306;SDS011;10312;52.434;13.206;2022-12-05T06:19:47;45.38;;;19.63;;
20306;SDS011;10312;52.434;13.206;2022-12-05T06:22:17;38.42;;;18.95;;
20306;SDS011;10312;52.434;13.206;2022-12-05T06:25:12;40.80;;;18.70;;
20306;SDS011;10312;52.434;13.206;2022-12-05T06:27:40;41.78;;;19.45;;
20306;SDS011;10312;52.434;13.206;2022-12-05T06:30:07;40.03;;;19.00;;
20306;SDS011;10312;52.434;13.206;2022-12-05T06:32:34;35.53;;;17.63;;
20306;SDS011;10312;52.434;13.206;2022-12-05T06:35:01;42.38;;;20.48;;
20306;SDS011;10312;52.434;13.206;2022-12-05T06:37:36;37.67;;;19.23;;
20306;SDS011;10312;52.434;13.206;2022-12-05T06:40:04;37.42;;;18.08;;
20306;SDS011;10312;52.434;13.206;2022-12-05T06:42:31;35.78;;;17.73;;
20306;SDS011;10312;52.434;13.206;2022-12-05T06:44:58;36.92;;;18.40;;
20306;SDS011;10312;52.434;13.206;2022-12-05T06:47:25;34.03;;;17.02;;
20306;SDS011;10312;52.434;13.206;2022-12-05T06:49:52;35.53;;;17.88;;
20306;SDS011;10312;52.434;13.206;2022-12-05T06:52:18;33.97;;;18.58;;
20306;SDS011;10312;52.434;13.206;2022-12-05T06:54:45;36.47;;;17.65;;
20306;SDS011;10312;52.434;13.206;2022-12-05T06:57:12;32.55;;;17.67;;
20306;SDS011;10312;52.434;13.206;2022-12-05T06:59:39;32.63;;;16.52;;
20306;SDS011;10312;52.434;13.206;2022-12-05T07:02:06;36.47;;;16.48;;
20306;SDS011;10312;52.434;13.206;2022-12-05T07:04:35;35.58;;;17.50;;
20306;SDS011;10312;52.434;13.206;2022-12-05T07:07:02;32.25;;;15.90;;
20306;SDS011;10312;52.434;13.206;2022-12-05T07:09:28;34.17;;;17.42;;
20306;SDS011;10312;52.434;13.206;2022-12-05T07:12:15;35.00;;;15.88;;
20306;SDS011;10312;52.434;13.206;2022-12-05T07:14:43;28.90;;;15.38;;
20306;SDS011;10312;52.434;13.206;2022-12-05T07:17:15;30.70;;;15.82;;
20306;SDS011;10312;52.434;13.206;2022-12-05T07:19:43;31.70;;;16.35;;
20306;SDS011;10312;52.434;13.206;2022-12-05T07:22:09;31.67;;;15.20;;
20306;SDS011;10312;52.434;13.206;2022-12-05T07:24:41;31.10;;;15.88;;
20306;SDS011;10312;52.434;13.206;2022-12-05T07:27:09;28.27;;;14.88;;
20306;SDS011;10312;52.434;13.206;2022-12-05T07:29:36;32.53;;;16.80;;
20306;SDS011;10312;52.434;13.206;2022-12-05T07:32:03;32.40;;;15.60;;
20306;SDS011;10312;52.434;13.206;2022-12-05T07:34:30;30.25;;;15.45;;
20306;SDS011;10312;52.434;13.206;2022-12-05T07:36:57;29.50;;;15.35;;
20306;SDS011;10312;52.434;13.206;2022-12-05T07:39:23;28.10;;;15.02;;
20306;SDS011;10312;52.434;13.206;2022-12-05T07:41:50;32.10;;;15.55;;
20306;SDS011;10312;52.434;13.206;2022-12-05T07:44:17;30.98;;;15.48;;
20306;SDS011;10312;52.434;13.206;2022-12-05T07:46:44;30.20;;;14.65;;
20306;SDS011;10312;52.434;13.206;2022-12-05T07:49:11;31.00;;;15.38;;
20306;SDS011;10312;52.434;13.206;2022-12-05T07:51:38;29.70;;;15.70;;
20306;SDS011;10312;52.434;13.206;2022-12-05T07:54:05;29.27;;;15.40;;
20306;SDS011;10312;52.434;13.206;2022-12-05T07:56:32;25.80;;;13.43;;
20306;SDS011;10312;52.434;13.206;2022-12-05T07:58:59;27.13;;;14.00;;
20306;SDS011;10312;52.434;13.206;2022-12-05T08:01:27;29.50;;;15.55;;
20306;SDS011;10312;52.434;13.206;2022-12-05T08:03:56;27.50;;;14.45;;
20306;SDS011;10312;52.434;13.206;2022-12-05T08:06:24;32.38;;;14.50;;
20306;SDS011;10312;52.434;13.206;2022-12-05T08:08:53;26.75;;;14.70;;
20306;SDS011;10312;52.434;13.206;2022-12-05T08:11:28;26.38;;;13.65;;
20306;SDS011;10312;52.434;13.206;2022-12-05T08:13:56;25.33;;;13.65;;
20306;SDS011;10312;52.434;13.206;2022-12-05T08:16:24;26.33;;;14.23;;
20306;SDS011;10312;52.434;13.206;2022-12-05T08:18:53;26.67;;;13.80;;
20306;SDS011;10312;52.434;13.206;2022-12-05T08:21:21;28.65;;;15.70;;
20306;SDS011;10312;52.434;13.206;2022-12-05T08:23:48;27.77;;;13.95;;
20306;SDS011;10312;52.434;13.206;2022-12-05T08:26:16;26.83;;;14.02;;
20306;SDS011;10312;52.434;13.206;2022-12-05T08:28:46;24.88;;;13.77;;
20306;SDS011;10312;52.434;13.206;2022-12-05T08:31:18;29.05;;;15.15;;
20306;SDS011;10312;52.434;13.206;2022-12-05T08:33:50;28.67;;;15.23;;
20306;SDS011;10312;52.434;13.206;2022-12-05T08:36:24;27.67;;;14.52;;
20306;SDS011;10312;52.434;13.206;2022-12-05T08:38:54;31.25;;;15.00;;
20306;SDS011;10312;52.434;13.206;2022-12-05T08:41:22;27.73;;;14.05;;
20306;SDS011;10312;52.434;13.206;2022-12-05T08:43:54;32.53;;;15.30;;
20306;SDS011;10312;52.434;13.206;2022-12-05T08:46:22;28.60;;;14.48;;
20306;SDS011;10312;52.434;13.206;2022-12-05T08:48:50;30.38;;;15.95;;
20306;SDS011;10312;52.434;13.206;2022-12-05T08:51:17;36.90;;;15.52;;
20306;SDS011;10312;52.434;13.206;2022-12-05T08:53:43;25.90;;;14.60;;
20306;SDS011;10312;52.434;13.206;2022-12-05T08:56:10;26.17;;;14.10;;
20306;SDS011;10312;52.434;13.206;2022-12-05T08:58:38;27.25;;;14.55;;
20306;SDS011;10312;52.434;13.206;2022-12-05T09:01:26;27.85;;;14.38;;
20306;SDS011;10312;52.434;13.206;2022-12-05T09:03:59;24.40;;;13.48;;
20306;SDS011;10312;52.434;13.206;2022-12-05T09:06:28;30.58;;;15.13;;
20306;SDS011;10312;52.434;13.206;2022-12-05T09:08:56;32.38;;;15.15;;
20306;SDS011;10312;52.434;13.206;2022-12-05T09:11:28;27.33;;;14.77;;
20306;SDS011;10312;52.434;13.206;2022-12-05T09:13:57;28.35;;;14.90;;
20306;SDS011;10312;52.434;13.206;2022-12-05T09:16:29;27.27;;;14.75;;
20306;SDS011;10312;52.434;13.206;2022-12-05T09:19:26;27.65;;;14.93;;
20306;SDS011;10312;52.434;13.206;2022-12-05T09:21:53;29.13;;;14.88;;
20306;SDS011;10312;52.434;13.206;2022-12-05T09:24:20;29.48;;;15.48;;
20306;SDS011;10312;52.434;13.206;2022-12-05T09:26:47;29.73;;;16.35;;
20306;SDS011;10312;52.434;13.206;2022-12-05T09:29:14;30.23;;;15.27;;
20306;SDS011;10312;52.434;13.206;2022-12-05T09:31:43;30.13;;;15.57;;
20306;SDS011;10312;52.434;13.206;2022-12-05T09:34:12;29.08;;;15.73;;
20306;SDS011;10312;52.434;13.206;2022-12-05T09:36:41;30.80;;;16.42;;
20306;SDS011;10312;52.434;13.206;2022-12-05T09:39:08;29.55;;;15.80;;
20306;SDS011;10312;52.434;13.206;2022-12-05T09:50:02;28.13;;;15.70;;
20306;SDS011;10312;52.434;13.206;2022-12-05T09:55:34;29.75;;;15.85;;
20306;SDS011;10312;52.434;13.206;2022-12-05T09:58:04;32.20;;;15.90;;
20306;SDS011;10312;52.434;13.206;2022-12-05T10:00:42;29.25;;;16.15;;
20306;SDS011;10312;52.434;13.206;2022-12-05T10:03:21;27.58;;;14.88;;
20306;SDS011;10312;52.434;13.206;2022-12-05T10:06:01;30.38;;;15.77;;
20306;SDS011;10312;52.434;13.206;2022-12-05T10:14:46;28.88;;;15.10;;
20306;SDS011;10312;52.434;13.206;2022-12-05T10:17:26;29.55;;;15.18;;
20306;SDS011;10312;52.434;13.206;2022-12-05T10:19:57;30.60;;;14.93;;
20306;SDS011;10312;52.434;13.206;2022-12-05T10:22:40;29.60;;;15.57;;
20306;SDS011;10312;52.434;13.206;2022-12-05T10:25:13;29.25;;;15.90;;
20306;SDS011;10312;52.434;13.206;2022-12-05T10:27:47;33.90;;;16.35;;
20306;SDS011;10312;52.434;13.206;2022-12-05T10:30:23;31.50;;;16.35;;
20306;SDS011;10312;52.434;13.206;2022-12-05T10:32:55;28.50;;;15.43;;
20306;SDS011;10312;52.434;13.206;2022-12-05T10:35:31;30.20;;;16.75;;
20306;SDS011;10312;52.434;13.206;2022-12-05T10:38:04;32.88;;;17.75;;
20306;SDS011;10312;52.434;13.206;2022-12-05T10:40:39;33.92;;;17.92;;
20306;SDS011;10312;52.434;13.206;2022-12-05T10:43:09;40.97;;;18.25;;
20306;SDS011;10312;52.434;13.206;2022-12-05T10:45:40;35.95;;;16.83;;
20306;SDS011;10312;52.434;13.206;2022-12-05T10:48:10;36.92;;;17.83;;
20306;SDS011;10312;52.434;13.206;2022-12-05T10:50:38;35.25;;;18.48;;
20306;SDS011;10312;52.434;13.206;2022-12-05T10:53:07;35.60;;;18.63;;
20306;SDS011;10312;52.434;13.206;2022-12-05T10:55:40;33.65;;;17.40;;
20306;SDS011;10312;52.434;13.206;2022-12-05T10:58:32;32.15;;;17.33;;
20306;SDS011;10312;52.434;13.206;2022-12-05T11:01:09;44.20;;;19.48;;
20306;SDS011;10312;52.434;13.206;2022-12-05T11:03:41;34.35;;;18.27;;
20306;SDS011;10312;52.434;13.206;2022-12-05T11:08:50;35.78;;;18.77;;
20306;SDS011;10312;52.434;13.206;2022-12-05T11:11:31;35.20;;;18.20;;
20306;SDS011;10312;52.434;13.206;2022-12-05T11:16:31;35.08;;;17.50;;
20306;SDS011;10312;52.434;13.206;2022-12-05T11:21:45;39.55;;;19.05;;
20306;SDS011;10312;52.434;13.206;2022-12-05T11:27:23;39.42;;;18.33;;
20306;SDS011;10312;52.434;13.206;2022-12-05T11:30:01;38.20;;;18.17;;
20306;SDS011;10312;52.434;13.206;2022-12-05T11:32:38;37.72;;;18.85;;
20306;SDS011;10312;52.434;13.206;2022-12-05T11:40:20;34.30;;;18.05;;
20306;SDS011;10312;52.434;13.206;2022-12-05T11:48:26;38.08;;;18.58;;
20306;SDS011;10312;52.434;13.206;2022-12-05T11:54:03;34.03;;;16.17;;
20306;SDS011;10312;52.434;13.206;2022-12-05T11:56:38;30.52;;;15.88;;
20306;SDS011;10312;52.434;13.206;2022-12-05T11:59:21;33.05;;;16.95;;
20306;SDS011;10312;52.434;13.206;2022-12-05T12:01:54;34.28;;;17.58;;
20306;SDS011;10312;52.434;13.206;2022-12-05T12:18:39;36.20;;;17.20;;
20306;SDS011;10312;52.434;13.206;2022-12-05T12:21:21;37.85;;;17.75;;
20306;SDS011;10312;52.434;13.206;2022-12-05T12:24:10;36.42;;;18.92;;
20306;SDS011;10312;52.434;13.206;2022-12-05T12:26:44;36.55;;;18.13;;
20306;SDS011;10312;52.434;13.206;2022-12-05T12:35:39;39.10;;;19.45;;
20306;SDS011;10312;52.434;13.206;2022-12-05T12:40:50;41.95;;;20.08;;
20306;SDS011;10312;52.434;13.206;2022-12-05T12:46:26;36.10;;;19.10;;
20306;SDS011;10312;52.434;13.206;2022-12-05T12:49:19;41.65;;;20.42;;
20306;SDS011;10312;52.434;13.206;2022-12-05T12:51:54;40.55;;;20.17;;
20306;SDS011;10312;52.434;13.206;2022-12-05T12:54:47;41.75;;;19.40;;
20306;SDS011;10312;52.434;13.206;2022-12-05T13:03:00;42.28;;;19.92;;
20306;SDS011;10312;52.434;13.206;2022-12-05T13:05:49;41.75;;;20.00;;
20306;SDS011;10312;52.434;13.206;2022-12-05T13:10:58;43.35;;;21.63;;
20306;SDS011;10312;52.434;13.206;2022-12-05T13:13:35;45.50;;;21.50;;
20306;SDS011;10312;52.434;13.206;2022-12-05T13:16:07;39.40;;;19.70;;
20306;SDS011;10312;52.434;13.206;2022-12-05T13:18:37;44.75;;;20.10;;
20306;SDS011;10312;52.434;13.206;2022-12-05T13:21:07;49.00;;;20.70;;
20306;SDS011;10312;52.434;13.206;2022-12-05T13:23:55;43.28;;;20.17;;
20306;SDS011;10312;52.434;13.206;2022-12-05T13:26:22;42.47;;;20.65;;
20306;SDS011;10312;52.434;13.206;2022-12-05T13:28:51;43.30;;;19.95;;
20306;SDS011;10312;52.434;13.206;2022-12-05T13:31:42;48.70;;;19.95;;
20306;SDS011;10312;52.434;13.206;2022-12-05T13:34:31;45.58;;;20.70;;
20306;SDS011;10312;52.434;13.206;2022-12-05T13:36:55;44.50;;;21.70;;
20306;SDS011;10312;52.434;13.206;2022-12-05T13:39:49;46.83;;;20.98;;
20306;SDS011;10312;52.434;13.206;2022-12-05T13:42:34;48.65;;;20.95;;
20306;SDS011;10312;52.434;13.206;2022-12-05T13:47:31;47.35;;;21.13;;
20306;SDS011;10312;52.434;13.206;2022-12-05T13:50:15;48.40;;;21.58;;
20306;SDS011;10312;52.434;13.206;2022-12-05T13:52:50;47.78;;;20.58;;
20306;SDS011;10312;52.434;13.206;2022-12-05T13:55:22;46.08;;;20.83;;
20306;SDS011;10312;52.434;13.206;2022-12-05T13:58:02;48.35;;;20.88;;
20306;SDS011;10312;52.434;13.206;2022-12-05T14:00:43;47.20;;;21.48;;
20306;SDS011;10312;52.434;13.206;2022-12-05T14:03:16;43.65;;;19.80;;
20306;SDS011;10312;52.434;13.206;2022-12-05T14:05:58;49.35;;;20.95;;
20306;SDS011;10312;52.434;13.206;2022-12-05T14:15:55;47.20;;;22.27;;
20306;SDS011;10312;52.434;13.206;2022-12-05T14:24:37;57.78;;;23.20;;
20306;SDS011;10312;52.434;13.206;2022-12-05T14:30:04;56.78;;;22.45;;
20306;SDS011;10312;52.434;13.206;2022-12-05T14:32:39;50.83;;;21.98;;
20306;SDS011;10312;52.434;13.206;2022-12-05T14:35:18;50.75;;;21.63;;
20306;SDS011;10312;52.434;13.206;2022-12-05T14:37:52;53.53;;;21.40;;
20306;SDS011;10312;52.434;13.206;2022-12-05T14:40:34;54.00;;;22.08;;
20306;SDS011;10312;52.434;13.206;2022-12-05T14:48:04;50.08;;;21.75;;
20306;SDS011;10312;52.434;13.206;2022-12-05T14:50:49;52.30;;;21.50;;
20306;SDS011;10312;52.434;13.206;2022-12-05T14:55:48;58.13;;;23.27;;
20306;SDS011;10312;52.434;13.206;2022-12-05T14:58:20;54.17;;;22.77;;
20306;SDS011;10312;52.434;13.206;2022-12-05T15:01:38;57.45;;;21.52;;
20306;SDS011;10312;52.434;13.206;2022-12-05T15:07:18;58.40;;;20.60;;
20306;SDS011;10312;52.434;13.206;2022-12-05T15:12:03;57.03;;;21.45;;
20306;SDS011;10312;52.434;13.206;2022-12-05T15:14:39;55.30;;;22.33;;
20306;SDS011;10312;52.434;13.206;2022-12-05T15:17:11;51.90;;;20.75;;
20306;SDS011;10312;52.434;13.206;2022-12-05T15:19:44;58.75;;;22.65;;
20306;SDS011;10312;52.434;13.206;2022-12-05T15:22:16;59.28;;;23.10;;
20306;SDS011;10312;52.434;13.206;2022-12-05T15:24:45;66.28;;;23.83;;
20306;SDS011;10312;52.434;13.206;2022-12-05T15:27:12;55.65;;;23.13;;
20306;SDS011;10312;52.434;13.206;2022-12-05T15:29:39;55.25;;;22.35;;
20306;SDS011;10312;52.434;13.206;2022-12-05T15:34:39;56.92;;;23.23;;
20306;SDS011;10312;52.434;13.206;2022-12-05T15:47:54;57.63;;;20.88;;
20306;SDS011;10312;52.434;13.206;2022-12-05T15:53:14;53.63;;;21.30;;
20306;SDS011;10312;52.434;13.206;2022-12-05T15:56:03;57.70;;;22.92;;
20306;SDS011;10312;52.434;13.206;2022-12-05T15:58:35;54.22;;;23.45;;
20306;SDS011;10312;52.434;13.206;2022-12-05T16:01:09;56.13;;;22.83;;
20306;SDS011;10312;52.434;13.206;2022-12-05T16:06:16;54.80;;;21.85;;
20306;SDS011;10312;52.434;13.206;2022-12-05T16:08:45;56.67;;;23.65;;
20306;SDS011;10312;52.434;13.206;2022-12-05T16:11:12;58.13;;;23.45;;
20306;SDS011;10312;52.434;13.206;2022-12-05T16:13:50;57.90;;;23.10;;
20306;SDS011;10312;52.434;13.206;2022-12-05T16:16:23;54.83;;;23.00;;
20306;SDS011;10312;52.434;13.206;2022-12-05T16:18:53;54.60;;;22.23;;
20306;SDS011;10312;52.434;13.206;2022-12-05T16:24:20;58.47;;;22.98;;
20306;SDS011;10312;52.434;13.206;2022-12-05T16:26:57;54.13;;;23.15;;
20306;SDS011;10312;52.434;13.206;2022-12-05T16:29:29;54.90;;;21.48;;
20306;SDS011;10312;52.434;13.206;2022-12-05T16:32:02;51.67;;;21.65;;
20306;SDS011;10312;52.434;13.206;2022-12-05T16:34:31;51.67;;;23.08;;
20306;SDS011;10312;52.434;13.206;2022-12-05T16:36:59;46.60;;;20.45;;
20306;SDS011;10312;52.434;13.206;2022-12-05T16:39:26;50.33;;;21.08;;
20306;SDS011;10312;52.434;13.206;2022-12-05T16:41:53;50.42;;;21.08;;
20306;SDS011;10312;52.434;13.206;2022-12-05T16:46:54;51.65;;;22.80;;
20306;SDS011;10312;52.434;13.206;2022-12-05T16:49:34;45.63;;;21.25;;
20306;SDS011;10312;52.434;13.206;2022-12-05T16:52:11;49.25;;;20.42;;
20306;SDS011;10312;52.434;13.206;2022-12-05T16:54:40;49.58;;;21.38;;
20306;SDS011;10312;52.434;13.206;2022-12-05T16:57:08;48.60;;;21.58;;
20306;SDS011;10312;52.434;13.206;2022-12-05T16:59:38;50.35;;;23.02;;
20306;SDS011;10312;52.434;13.206;2022-12-05T17:02:15;52.40;;;22.48;;
20306;SDS011;10312;52.434;13.206;2022-12-05T17:04:43;49.45;;;21.55;;
20306;SDS011;10312;52.434;13.206;2022-12-05T17:07:13;47.80;;;21.75;;
20306;SDS011;10312;52.434;13.206;2022-12-05T17:09:40;47.95;;;21.73;;
20306;SDS011;10312;52.434;13.206;2022-12-05T17:12:12;47.78;;;22.77;;
20306;SDS011;10312;52.434;13.206;2022-12-05T17:14:47;56.45;;;23.05;;
20306;SDS011;10312;52.434;13.206;2022-12-05T17:17:15;56.47;;;22.58;;
20306;SDS011;10312;52.434;13.206;2022-12-05T17:19:43;52.92;;;21.83;;
20306;SDS011;10312;52.434;13.206;2022-12-05T17:22:11;47.63;;;21.50;;
20306;SDS011;10312;52.434;13.206;2022-12-05T17:24:39;50.17;;;20.98;;
20306;SDS011;10312;52.434;13.206;2022-12-05T17:27:12;46.28;;;21.65;;
20306;SDS011;10312;52.434;13.206;2022-12-05T17:29:39;46.53;;;21.38;;
20306;SDS011;10312;52.434;13.206;2022-12-05T17:32:08;46.97;;;21.60;;
20306;SDS011;10312;52.434;13.206;2022-12-05T17:34:36;44.78;;;20.98;;